createdAt,value
2019-04-11T00:00:01.415Z,101556.55
2019-04-11T00:02:33.131Z,101561.59
2019-04-11T00:05:06.323Z,101562.30
2019-04-11T00:07:38.568Z,101566.16
2019-04-11T00:10:10.362Z,101564.11
2019-04-11T00:12:42.981Z,101565.72
2019-04-11T00:15:14.567Z,101572.22
2019-04-11T00:17:46.056Z,101580.21
2019-04-11T00:20:18.677Z,101581.49
2019-04-11T00:22:51.293Z,101576.14
2019-04-11T00:25:23.222Z,101569.91
2019-04-11T00:27:54.828Z,101568.20
2019-04-11T00:30:26.203Z,101571.39
2019-04-11T00:32:58.218Z,101575.13
2019-04-11T00:35:29.507Z,101570.31
2019-04-11T00:38:01.427Z,101572.87
2019-04-11T00:40:33.290Z,101569.73
2019-04-11T00:43:05.228Z,101571.72
2019-04-11T00:45:38.150Z,101572.73
2019-04-11T00:48:09.943Z,101573.84
2019-04-11T00:50:41.659Z,101569.23
2019-04-11T00:53:13.931Z,101576.20
2019-04-11T00:55:46.004Z,101575.67
2019-04-11T00:58:17.392Z,101557.92
2019-04-11T01:00:48.263Z,101583.88
2019-04-11T01:03:20.227Z,101584.75
2019-04-11T01:05:52.003Z,101589.55
2019-04-11T01:08:23.967Z,101591.55
2019-04-11T01:10:57.397Z,101586.81
2019-04-11T01:13:40.582Z,101590.59
2019-04-11T01:16:05.042Z,101591.94
2019-04-11T01:18:38.228Z,101589.37
2019-04-11T01:21:10.380Z,101591.55
2019-04-11T01:23:42.922Z,101589.55
2019-04-11T01:26:14.911Z,101592.37
2019-04-11T01:28:46.992Z,101593.64
2019-04-11T01:31:21.635Z,101592.31
2019-04-11T01:33:53.837Z,101590.98
2019-04-11T01:36:26.745Z,101584.75
2019-04-11T01:39:01.384Z,101584.75
2019-04-11T01:41:34.349Z,101586.72
2019-04-11T01:44:09.382Z,101586.78
2019-04-11T01:46:42.350Z,101589.64
2019-04-11T01:49:17.909Z,101589.02
2019-04-11T01:51:49.754Z,101589.48
2019-04-11T01:54:21.809Z,101596.78
2019-04-11T01:56:53.681Z,101598.12
2019-04-11T01:59:27.022Z,101608.21
2019-04-11T02:02:01.140Z,101571.38
2019-04-11T02:04:34.515Z,101571.38
2019-04-11T02:07:06.637Z,101610.59
2019-04-11T02:09:38.410Z,101612.77
2019-04-11T02:12:09.948Z,101617.04
2019-04-11T02:14:41.745Z,101615.77
2019-04-11T02:17:14.729Z,101616.72
2019-04-11T02:19:46.149Z,101619.98
2019-04-11T02:22:18.682Z,101619.66
2019-04-11T02:24:52.241Z,101616.34
2019-04-11T02:27:26.006Z,101615.23
2019-04-11T02:29:58.539Z,101611.92
2019-04-11T02:32:31.809Z,101613.20
2019-04-11T02:35:05.193Z,101615.00
2019-04-11T02:37:35.727Z,101617.09
2019-04-11T02:40:08.936Z,101618.17
2019-04-11T02:42:41.165Z,101617.62
2019-04-11T02:45:24.980Z,101614.39
2019-04-11T02:47:48.461Z,101620.84
2019-04-11T02:50:21.978Z,101619.63
2019-04-11T02:52:53.147Z,101620.00
2019-04-11T02:55:25.204Z,101615.69
2019-04-11T02:57:59.126Z,101614.60
2019-04-11T03:00:31.076Z,101616.87
2019-04-11T03:03:03.661Z,101620.33
2019-04-11T03:05:37.536Z,101614.08
2019-04-11T03:08:12.136Z,101619.72
2019-04-11T03:10:43.004Z,101616.83
2019-04-11T03:13:16.770Z,101614.45
2019-04-11T03:16:00.062Z,101621.05
2019-04-11T03:18:40.773Z,101617.11
2019-04-11T03:20:59.833Z,101623.89
2019-04-11T03:23:28.560Z,101620.77
2019-04-11T03:26:00.698Z,101624.89
2019-04-11T03:28:34.019Z,101625.30
2019-04-11T03:31:42.212Z,101626.30
2019-04-11T03:34:44.582Z,101628.66
2019-04-11T03:37:08.735Z,101629.89
2019-04-11T03:39:13.097Z,101635.16
2019-04-11T03:41:38.508Z,101635.39
2019-04-11T03:44:00.367Z,101634.11
2019-04-11T03:46:43.342Z,101630.65
2019-04-11T03:49:16.922Z,101638.32
2019-04-11T03:51:36.479Z,101633.55
2019-04-11T03:54:09.721Z,101636.71
2019-04-11T03:56:41.406Z,101637.28
2019-04-11T03:59:16.463Z,101641.97
2019-04-11T04:01:48.728Z,101645.48
2019-04-11T04:04:21.819Z,101644.95
2019-04-11T04:06:55.190Z,101643.30
2019-04-11T04:09:28.647Z,101645.85
2019-04-11T04:12:00.378Z,101643.75
2019-04-11T04:14:34.530Z,101646.92
2019-04-11T04:17:08.430Z,101648.72
2019-04-11T04:19:40.983Z,101653.31
2019-04-11T04:22:15.910Z,101658.23
2019-04-11T04:24:49.107Z,101665.72
2019-04-11T04:27:23.281Z,101673.95
2019-04-11T04:29:57.753Z,101664.44
2019-04-11T04:32:28.082Z,101671.17
2019-04-11T04:35:01.125Z,101676.12
2019-04-11T04:37:34.759Z,101682.86
2019-04-11T04:40:23.857Z,101677.19
2019-04-11T04:42:46.647Z,101674.40
2019-04-11T04:45:16.229Z,101679.81
2019-04-11T04:47:51.961Z,101677.36
2019-04-11T04:50:20.124Z,101678.78
2019-04-11T04:52:53.464Z,101680.92
2019-04-11T04:55:25.973Z,101683.06
2019-04-11T04:57:59.443Z,101685.91
2019-04-11T05:00:32.030Z,101688.38
2019-04-11T05:03:05.497Z,101685.53
2019-04-11T05:05:38.331Z,101693.17
2019-04-11T05:08:11.120Z,101690.31
2019-04-11T05:10:42.587Z,101691.13
2019-04-11T05:13:15.686Z,101690.55
2019-04-11T05:15:48.976Z,101689.84
2019-04-11T05:18:23.759Z,101691.41
2019-04-11T05:20:55.403Z,101693.90
2019-04-11T05:23:27.671Z,101689.62
2019-04-11T05:26:00.166Z,101690.75
2019-04-11T05:28:32.815Z,101694.67
2019-04-11T05:31:04.208Z,101691.23
2019-04-11T05:33:35.562Z,101689.09
2019-04-11T05:36:07.907Z,101687.67
2019-04-11T05:38:39.228Z,101686.21
2019-04-11T05:41:12.227Z,101684.92
2019-04-11T05:43:43.272Z,101693.47
2019-04-11T05:46:26.081Z,101696.60
2019-04-11T05:48:50.640Z,101690.55
2019-04-11T05:51:23.823Z,101690.66
2019-04-11T05:53:57.758Z,101698.53
2019-04-11T05:56:30.514Z,101693.22
2019-04-11T05:59:03.584Z,101692.19
2019-04-11T06:01:39.914Z,101698.00
2019-04-11T06:04:20.311Z,101701.84
2019-04-11T06:06:50.647Z,101698.16
2019-04-11T06:09:23.412Z,101699.05
2019-04-11T06:11:57.266Z,101700.63
2019-04-11T06:14:29.341Z,101703.55
2019-04-11T06:17:02.115Z,101699.91
2019-04-11T06:19:34.703Z,101701.63
2019-04-11T06:22:08.686Z,101709.55
2019-04-11T06:24:42.606Z,101713.70
2019-04-11T06:27:16.699Z,101690.78
2019-04-11T06:29:50.721Z,101713.73
2019-04-11T06:32:23.789Z,101697.58
2019-04-11T06:34:57.694Z,101709.51
2019-04-11T06:37:30.547Z,101715.92
2019-04-11T06:40:04.188Z,101715.89
2019-04-11T06:42:37.659Z,101715.89
2019-04-11T06:45:11.286Z,101717.83
2019-04-11T06:47:45.086Z,101713.95
2019-04-11T06:50:17.787Z,101714.27
2019-04-11T06:52:49.427Z,101711.81
2019-04-11T06:55:22.870Z,101717.68
2019-04-11T06:57:56.374Z,101691.80
2019-04-11T07:00:29.307Z,101713.64
2019-04-11T07:03:03.517Z,101715.16
2019-04-11T07:05:36.368Z,101715.69
2019-04-11T07:08:07.723Z,101717.02
2019-04-11T07:10:40.458Z,101718.81
2019-04-11T07:13:12.910Z,101719.03
2019-04-11T07:15:46.468Z,101726.44
2019-04-11T07:18:18.939Z,101722.41
2019-04-11T07:20:52.379Z,101725.23
2019-04-11T07:23:26.357Z,101726.52
2019-04-11T07:26:00.301Z,101727.89
2019-04-11T07:28:33.689Z,101723.81
2019-04-11T07:31:06.870Z,101725.60
2019-04-11T07:33:40.846Z,101725.95
2019-04-11T07:36:14.655Z,101733.08
2019-04-11T07:38:50.828Z,101728.07
2019-04-11T07:41:23.943Z,101733.72
2019-04-11T07:43:56.534Z,101729.83
2019-04-11T07:46:29.018Z,101731.55
2019-04-11T07:49:01.503Z,101739.53
2019-04-11T07:51:34.301Z,101735.27
2019-04-11T07:54:06.211Z,101729.13
2019-04-11T07:56:39.349Z,101739.05
2019-04-11T07:59:12.906Z,101733.20
2019-04-11T08:01:46.867Z,101733.62
2019-04-11T08:04:19.715Z,101731.59
2019-04-11T08:07:02.176Z,101730.92
2019-04-11T08:09:34.240Z,101726.97
2019-04-11T08:12:08.668Z,101734.32
2019-04-11T08:14:42.526Z,101735.77
2019-04-11T08:17:38.552Z,101728.77
2019-04-11T08:20:13.139Z,101725.14
2019-04-11T08:22:49.610Z,101731.61
2019-04-11T08:25:23.020Z,101732.84
2019-04-11T08:28:00.712Z,101731.31
2019-04-11T08:30:32.842Z,101728.98
2019-04-11T08:33:07.499Z,101733.05
2019-04-11T08:35:42.049Z,101729.13
2019-04-11T08:38:18.362Z,101735.05
2019-04-11T08:40:53.265Z,101729.81
2019-04-11T08:43:26.914Z,101739.30
2019-04-11T08:46:00.820Z,101731.45
2019-04-11T08:48:35.165Z,101738.83
2019-04-11T08:51:09.688Z,101731.98
2019-04-11T08:53:42.846Z,101733.78
2019-04-11T08:56:15.924Z,101740.62
2019-04-11T08:58:51.468Z,101723.45
2019-04-11T09:01:24.770Z,101727.44
2019-04-11T09:04:05.186Z,101731.72
2019-04-11T09:06:32.956Z,101730.95
2019-04-11T09:09:07.421Z,101730.30
2019-04-11T09:11:42.751Z,101725.80
2019-04-11T09:14:18.606Z,101720.32
2019-04-11T09:16:52.207Z,101716.98
2019-04-11T09:19:25.755Z,101714.28
2019-04-11T09:22:07.278Z,101712.13
2019-04-11T09:24:41.110Z,101708.83
2019-04-11T09:27:14.280Z,101717.17
2019-04-11T09:29:54.530Z,101716.58
2019-04-11T09:32:30.177Z,101704.53
2019-04-11T09:35:04.565Z,101700.88
2019-04-11T09:37:36.117Z,101707.91
2019-04-11T09:40:09.951Z,101703.16
2019-04-11T09:42:43.136Z,101708.37
2019-04-11T09:45:15.521Z,101702.95
2019-04-11T09:47:49.830Z,101707.03
2019-04-11T09:50:22.429Z,101717.01
2019-04-11T09:52:55.948Z,101718.87
2019-04-11T09:55:26.616Z,101720.30
2019-04-11T09:58:00.937Z,101725.24
2019-04-11T10:00:32.854Z,101729.91
2019-04-11T10:03:06.516Z,101727.77
2019-04-11T10:05:40.537Z,101731.91
2019-04-11T10:08:14.752Z,101731.50
2019-04-11T10:10:48.937Z,101732.11
2019-04-11T10:13:21.473Z,101730.67
2019-04-11T10:15:55.625Z,101731.02
2019-04-11T10:18:33.706Z,101731.66
2019-04-11T10:21:04.845Z,101729.91
2019-04-11T10:23:37.276Z,101727.52
2019-04-11T10:26:08.056Z,101729.27
2019-04-11T10:28:41.704Z,101727.58
2019-04-11T10:31:12.720Z,101727.67
2019-04-11T10:33:45.537Z,101725.31
2019-04-11T10:36:18.964Z,101726.95
2019-04-11T10:38:51.681Z,101727.48
2019-04-11T10:41:25.191Z,101733.59
2019-04-11T10:43:57.172Z,101733.04
2019-04-11T10:46:33.474Z,101730.60
2019-04-11T10:49:07.477Z,101734.08
2019-04-11T10:51:40.882Z,101735.34
2019-04-11T10:54:16.585Z,101735.89
2019-04-11T10:57:05.616Z,101730.32
2019-04-11T10:59:44.886Z,101736.34
2019-04-11T11:02:17.872Z,101734.30
2019-04-11T11:04:52.577Z,101737.88
2019-04-11T11:07:24.824Z,101737.94
2019-04-11T11:09:58.730Z,101736.39
2019-04-11T11:12:33.009Z,101724.13
2019-04-11T11:15:07.897Z,101728.67
2019-04-11T11:18:21.713Z,101728.26
2019-04-11T11:20:36.347Z,101731.33
2019-04-11T11:23:10.929Z,101731.51
2019-04-11T11:25:48.543Z,101730.37
2019-04-11T11:28:21.514Z,101735.17
2019-04-11T11:30:54.439Z,101729.88
2019-04-11T11:33:27.983Z,101739.20
2019-04-11T11:36:03.278Z,101739.12
2019-04-11T11:38:37.697Z,101732.54
2019-04-11T11:41:12.133Z,101736.53
2019-04-11T11:43:45.408Z,101738.60
2019-04-11T11:46:19.341Z,101744.31
2019-04-11T11:48:54.155Z,101747.53
2019-04-11T11:51:29.600Z,101748.52
2019-04-11T11:54:02.990Z,101745.12
2019-04-11T11:56:36.207Z,101754.56
2019-04-11T11:59:11.156Z,101753.39
2019-04-11T12:01:48.027Z,101747.80
2019-04-11T12:04:19.624Z,101751.64
2019-04-11T12:06:56.761Z,101747.42
2019-04-11T12:09:26.677Z,101749.14
2019-04-11T12:12:00.167Z,101745.69
2019-04-11T12:14:35.226Z,101754.03
2019-04-11T12:17:08.554Z,101752.34
2019-04-11T12:19:51.136Z,101748.37
2019-04-11T12:22:20.021Z,101755.29
2019-04-11T12:24:56.448Z,101754.09
2019-04-11T12:27:29.560Z,101748.90
2019-04-11T12:30:13.559Z,101745.98
2019-04-11T12:32:55.115Z,101746.91
2019-04-11T12:35:29.076Z,101747.94
2019-04-11T12:38:01.646Z,101744.70
2019-04-11T12:40:34.607Z,101750.77
2019-04-11T12:43:07.559Z,101745.92
2019-04-11T12:45:40.441Z,101740.75
2019-04-11T12:48:13.666Z,101745.33
2019-04-11T12:50:46.884Z,101746.54
2019-04-11T12:53:19.345Z,101745.25
2019-04-11T12:55:52.074Z,101738.66
2019-04-11T12:58:25.247Z,101745.41
2019-04-11T13:00:58.301Z,101742.71
2019-04-11T13:03:40.540Z,101743.36
2019-04-11T13:06:14.249Z,101735.58
2019-04-11T13:08:48.887Z,101739.18
2019-04-11T13:11:22.160Z,101739.62
2019-04-11T13:13:54.847Z,101739.63
2019-04-11T13:16:27.799Z,101742.11
2019-04-11T13:19:00.492Z,101743.36
2019-04-11T13:21:33.471Z,101734.29
2019-04-11T13:24:06.321Z,101738.58
2019-04-11T13:26:40.342Z,101737.64
2019-04-11T13:29:13.700Z,101739.33
2019-04-11T13:31:46.480Z,101741.97
2019-04-11T13:34:22.294Z,101736.23
2019-04-11T13:36:55.224Z,101744.20
2019-04-11T13:39:28.101Z,101748.81
2019-04-11T13:42:02.137Z,101743.98
2019-04-11T13:44:37.731Z,101739.84
2019-04-11T13:47:10.706Z,101735.32
2019-04-11T13:49:44.436Z,101734.80
2019-04-11T13:52:18.743Z,101733.92
2019-04-11T13:54:57.342Z,101736.52
2019-04-11T13:57:30.538Z,101737.17
2019-04-11T14:00:09.649Z,101733.98
2019-04-11T14:02:51.132Z,101739.41
2019-04-11T14:05:20.785Z,101741.04
2019-04-11T14:07:54.236Z,101738.69
2019-04-11T14:10:31.368Z,101736.53
2019-04-11T14:13:04.090Z,101734.88
2019-04-11T14:15:40.529Z,101735.83
2019-04-11T14:18:13.280Z,101736.73
2019-04-11T14:20:50.049Z,101735.30
2019-04-11T14:23:25.514Z,101736.58
2019-04-11T14:26:02.464Z,101733.00
2019-04-11T14:28:39.752Z,101734.90
2019-04-11T14:31:13.007Z,101738.78
2019-04-11T14:33:48.356Z,101730.80
2019-04-11T14:36:33.090Z,101730.32
2019-04-11T14:39:01.651Z,101734.76
2019-04-11T14:41:37.312Z,101726.89
2019-04-11T14:44:15.807Z,101726.39
2019-04-11T14:46:49.889Z,101732.17
2019-04-11T14:49:23.186Z,101725.84
2019-04-11T14:51:58.955Z,101721.30
2019-04-11T14:54:32.379Z,101728.42
2019-04-11T14:57:05.492Z,101720.25
2019-04-11T14:59:39.126Z,101724.09
2019-04-11T15:02:12.981Z,101722.94
2019-04-11T15:04:46.130Z,101722.05
2019-04-11T15:07:19.649Z,101729.56
2019-04-11T15:09:53.089Z,101720.25
2019-04-11T15:12:26.353Z,101718.81
2019-04-11T15:14:57.107Z,101723.20
2019-04-11T15:17:30.061Z,101726.99
2019-04-11T15:20:03.282Z,101728.07
2019-04-11T15:22:39.312Z,101733.30
2019-04-11T15:25:13.913Z,101729.92
2019-04-11T15:28:13.169Z,101731.46
2019-04-11T15:30:49.773Z,101733.95
2019-04-11T15:33:23.149Z,101734.74
2019-04-11T15:35:58.031Z,101735.53
2019-04-11T15:38:30.616Z,101736.72
2019-04-11T15:41:05.675Z,101743.19
2019-04-11T15:43:46.212Z,101739.30
2019-04-11T15:46:21.492Z,101735.39
2019-04-11T15:48:55.733Z,101742.39
2019-04-11T15:51:30.371Z,101739.95
2019-04-11T15:54:06.907Z,101749.41
2019-04-11T15:56:41.915Z,101745.77
2019-04-11T15:59:13.145Z,101745.02
2019-04-11T16:01:46.910Z,101745.16
2019-04-11T16:04:19.752Z,101742.83
2019-04-11T16:06:54.298Z,101743.47
2019-04-11T16:09:26.500Z,101747.21
2019-04-11T16:11:59.665Z,101745.27
2019-04-11T16:14:31.614Z,101741.39
2019-04-11T16:17:05.347Z,101744.63
2019-04-11T16:19:38.403Z,101751.38
2019-04-11T16:22:11.142Z,101751.00
2019-04-11T16:24:44.104Z,101753.34
2019-04-11T16:27:18.001Z,101758.40
2019-04-11T16:29:53.071Z,101751.53
2019-04-11T16:32:26.553Z,101755.77
2019-04-11T16:34:59.680Z,101756.30
2019-04-11T16:37:31.330Z,101757.06
2019-04-11T16:40:04.383Z,101759.80
2019-04-11T16:42:36.801Z,101763.95
2019-04-11T16:45:10.581Z,101765.50
2019-04-11T16:47:43.706Z,101771.31
2019-04-11T16:50:14.940Z,101773.38
2019-04-11T16:52:46.310Z,101768.73
2019-04-11T16:55:18.065Z,101766.53
2019-04-11T16:58:01.176Z,101768.33
2019-04-11T17:00:52.113Z,101772.09
2019-04-11T17:03:24.822Z,101769.77
2019-04-11T17:05:55.903Z,101768.08
2019-04-11T17:08:29.182Z,101775.94
2019-04-11T17:11:02.641Z,101776.22
2019-04-11T17:13:34.831Z,101775.30
2019-04-11T17:16:08.100Z,101772.73
2019-04-11T17:18:39.788Z,101773.24
2019-04-11T17:21:11.439Z,101778.13
2019-04-11T17:23:46.889Z,101784.59
2019-04-11T17:26:15.757Z,101788.11
2019-04-11T17:28:47.827Z,101791.59
2019-04-11T17:31:19.447Z,101788.35
2019-04-11T17:33:50.866Z,101791.85
2019-04-11T17:36:23.073Z,101793.24
2019-04-11T17:38:54.587Z,101803.67
2019-04-11T17:41:26.257Z,101804.09
2019-04-11T17:43:58.818Z,101804.97
2019-04-11T17:46:30.075Z,101814.67
2019-04-11T17:49:01.651Z,101818.16
2019-04-11T17:51:34.790Z,101814.01
2019-04-11T17:54:06.193Z,101821.25
2019-04-11T17:56:38.030Z,101821.49
2019-04-11T17:59:12.042Z,101828.73
2019-04-11T18:01:42.412Z,101831.83
2019-04-11T18:04:14.164Z,101838.05
2019-04-11T18:06:47.246Z,101843.69
2019-04-11T18:09:20.475Z,101841.50
2019-04-11T18:11:55.863Z,101843.69
2019-04-11T18:14:24.332Z,101846.69
2019-04-11T18:16:56.013Z,101854.68
2019-04-11T18:19:27.741Z,101859.45
2019-04-11T18:22:07.683Z,101855.19
2019-04-11T18:24:34.562Z,101861.26
2019-04-11T18:27:05.803Z,101864.62
2019-04-11T18:29:39.579Z,101867.32
2019-04-11T18:32:12.035Z,101866.93
2019-04-11T18:34:43.491Z,101869.04
2019-04-11T18:37:16.210Z,101867.71
2019-04-11T18:39:48.241Z,101864.89
2019-04-11T18:42:20.433Z,101869.94
2019-04-11T18:44:54.336Z,101874.45
2019-04-11T18:47:26.710Z,101873.15
2019-04-11T18:50:00.750Z,101870.30
2019-04-11T18:52:34.634Z,101876.91
2019-04-11T18:55:08.346Z,101879.45
2019-04-11T18:57:40.105Z,101875.85
2019-04-11T19:00:14.179Z,101874.33
2019-04-11T19:02:47.588Z,101879.10
2019-04-11T19:05:28.205Z,101881.53
2019-04-11T19:07:52.767Z,101880.36
2019-04-11T19:10:24.719Z,101879.57
2019-04-11T19:12:56.528Z,101881.99
2019-04-11T19:15:29.191Z,101877.61
2019-04-11T19:18:06.560Z,101880.94
2019-04-11T19:20:34.113Z,101882.61
2019-04-11T19:23:08.593Z,101888.95
2019-04-11T19:25:44.500Z,101886.10
2019-04-11T19:28:25.839Z,101885.36
2019-04-11T19:31:04.005Z,101881.21
2019-04-11T19:33:36.761Z,101889.11
2019-04-11T19:36:09.997Z,101892.48
2019-04-11T19:38:43.298Z,101889.34
2019-04-11T19:41:17.997Z,101890.24
2019-04-11T19:43:50.726Z,101890.83
2019-04-11T19:46:22.098Z,101894.69
2019-04-11T19:48:57.039Z,101894.42
2019-04-11T19:51:29.081Z,101892.50
2019-04-11T19:54:03.839Z,101891.32
2019-04-11T19:56:43.166Z,101890.22
2019-04-11T19:59:17.525Z,101891.55
2019-04-11T20:01:53.203Z,101893.36
2019-04-11T20:04:25.204Z,101892.97
2019-04-11T20:06:56.843Z,101893.23
2019-04-11T20:09:29.852Z,101897.84
2019-04-11T20:12:01.684Z,101893.63
2019-04-11T20:14:35.069Z,101888.73
2019-04-11T20:17:05.784Z,101891.00
2019-04-11T20:19:37.044Z,101886.91
2019-04-11T20:22:09.265Z,101890.82
2019-04-11T20:24:45.963Z,101884.98
2019-04-11T20:27:14.264Z,101893.23
2019-04-11T20:29:56.951Z,101900.59
2019-04-11T20:32:33.991Z,101894.80
2019-04-11T20:35:09.381Z,101892.56
2019-04-11T20:37:48.267Z,101891.22
2019-04-11T20:40:23.323Z,101893.00
2019-04-11T20:42:57.794Z,101898.94
2019-04-11T20:45:30.963Z,101893.34
2019-04-11T20:48:02.164Z,101905.06
2019-04-11T20:50:33.562Z,101896.42
2019-04-11T20:53:12.654Z,101895.02
2019-04-11T20:55:39.909Z,101901.70
2019-04-11T20:58:11.824Z,101894.72
2019-04-11T21:00:50.137Z,101901.63
2019-04-11T21:03:18.731Z,101901.02
2019-04-11T21:05:49.592Z,101899.22
2019-04-11T21:08:20.695Z,101904.37
2019-04-11T21:10:51.605Z,101899.22
2019-04-11T21:13:23.463Z,101901.41
2019-04-11T21:15:56.343Z,101897.13
2019-04-11T21:18:27.726Z,101901.84
2019-04-11T21:20:58.670Z,101900.33
2019-04-11T21:23:30.301Z,101904.21
2019-04-11T21:26:01.813Z,101908.36
2019-04-11T21:28:33.403Z,101903.75
2019-04-11T21:31:05.507Z,101899.34
2019-04-11T21:33:36.293Z,101903.83
2019-04-11T21:36:07.185Z,101907.67
2019-04-11T21:38:38.221Z,101906.00
2019-04-11T21:41:09.331Z,101905.77
2019-04-11T21:43:40.407Z,101907.34
2019-04-11T21:46:12.219Z,101905.66
2019-04-11T21:48:42.886Z,101907.70
2019-04-11T21:51:14.397Z,101903.31
2019-04-11T21:53:46.143Z,101901.84
2019-04-11T21:56:18.627Z,101905.89
2019-04-11T21:58:50.751Z,101910.09
2019-04-11T22:01:24.858Z,101908.44
2019-04-11T22:03:57.975Z,101907.08
2019-04-11T22:06:30.532Z,101904.86
2019-04-11T22:09:04.851Z,101911.26
2019-04-11T22:11:38.458Z,101907.45
2019-04-11T22:14:11.319Z,101905.14
2019-04-11T22:16:45.121Z,101912.06
2019-04-11T22:19:16.724Z,101916.44
2019-04-11T22:21:48.223Z,101918.63
2019-04-11T22:24:19.444Z,101903.77
2019-04-11T22:26:51.226Z,101908.98
2019-04-11T22:29:25.032Z,101903.34
2019-04-11T22:31:56.571Z,101910.69
2019-04-11T22:34:29.558Z,101912.94
2019-04-11T22:37:00.976Z,101907.70
2019-04-11T22:39:34.031Z,101912.70
2019-04-11T22:42:06.492Z,101912.13
2019-04-11T22:44:40.867Z,101909.83
2019-04-11T22:47:12.839Z,101913.59
2019-04-11T22:49:44.196Z,101919.69
2019-04-11T22:52:15.360Z,101916.34
2019-04-11T22:54:47.497Z,101917.05
2019-04-11T22:57:19.695Z,101916.77
2019-04-11T22:59:51.136Z,101918.58
2019-04-11T23:02:28.188Z,101918.58
2019-04-11T23:04:59.502Z,101915.37
2019-04-11T23:07:31.256Z,101914.86
2019-04-11T23:10:03.031Z,101917.95
2019-04-11T23:12:34.645Z,101914.99
2019-04-11T23:15:07.811Z,101922.60
2019-04-11T23:17:41.751Z,101910.32
2019-04-11T23:20:14.292Z,101909.94
2019-04-11T23:22:46.216Z,101909.83
2019-04-11T23:25:19.542Z,101910.12
2019-04-11T23:27:51.613Z,101923.59
2019-04-11T23:30:23.005Z,101918.12
2019-04-11T23:32:54.556Z,101914.80
2019-04-11T23:35:25.914Z,101910.09
2019-04-11T23:37:57.649Z,101911.94
2019-04-11T23:40:29.158Z,101915.97
2019-04-11T23:43:01.765Z,101917.74
2019-04-11T23:45:33.830Z,101916.84
2019-04-11T23:48:05.395Z,101913.23
2019-04-11T23:50:36.774Z,101911.69
2019-04-11T23:53:08.170Z,101906.23
2019-04-11T23:55:39.690Z,101910.33
2019-04-11T23:58:10.700Z,101906.66
